createdAt,value
2023-04-16T00:00:31.629Z,-74
2023-04-16T00:02:59.031Z,-75
2023-04-16T00:05:26.481Z,-75
2023-04-16T00:07:53.786Z,-75
2023-04-16T00:10:21.093Z,-74
2023-04-16T00:12:48.530Z,-75
2023-04-16T00:15:15.794Z,-75
2023-04-16T00:17:43.210Z,-75
2023-04-16T00:20:10.987Z,-75
2023-04-16T00:22:38.209Z,-74
2023-04-16T00:25:06.118Z,-74
2023-04-16T00:27:33.492Z,-74
2023-04-16T00:30:00.756Z,-76
2023-04-16T00:32:28.268Z,-74
2023-04-16T00:34:55.716Z,-74
2023-04-16T00:37:23.068Z,-75
2023-04-16T00:39:51.225Z,-75
2023-04-16T00:42:18.675Z,-76
2023-04-16T00:44:45.868Z,-75
2023-04-16T00:47:13.197Z,-75
2023-04-16T00:49:40.651Z,-75
2023-04-16T00:52:08.133Z,-74
2023-04-16T00:54:36.006Z,-75
2023-04-16T00:57:03.607Z,-75
2023-04-16T00:59:30.972Z,-75
2023-04-16T01:01:58.381Z,-75
2023-04-16T01:04:25.903Z,-75
2023-04-16T01:06:53.397Z,-74
2023-04-16T01:09:20.567Z,-77
2023-04-16T01:11:47.777Z,-75
2023-04-16T01:14:15.091Z,-75
2023-04-16T01:16:42.452Z,-75
2023-04-16T01:19:10.104Z,-75
2023-04-16T01:21:37.505Z,-75
2023-04-16T01:24:05.728Z,-75
2023-04-16T01:26:33.333Z,-75
2023-04-16T01:29:00.975Z,-76
2023-04-16T01:31:28.281Z,-74
2023-04-16T01:33:55.601Z,-75
2023-04-16T01:36:23.298Z,-75
2023-04-16T01:38:50.606Z,-75
2023-04-16T01:41:17.759Z,-75
2023-04-16T01:43:44.999Z,-74
2023-04-16T01:46:23.926Z,-75
2023-04-16T01:48:51.203Z,-75
2023-04-16T01:51:18.495Z,-75
2023-04-16T01:53:46.052Z,-75
2023-04-16T01:56:13.439Z,-75
2023-04-16T01:58:40.611Z,-74
2023-04-16T02:01:07.879Z,-74
2023-04-16T02:03:35.666Z,-76
2023-04-16T02:06:03.027Z,-75
2023-04-16T02:08:32.950Z,-75
2023-04-16T02:11:00.725Z,-75
2023-04-16T02:13:27.898Z,-76
2023-04-16T02:15:55.398Z,-75
2023-04-16T02:18:22.703Z,-74
2023-04-16T02:20:49.961Z,-76
2023-04-16T02:23:17.796Z,-74
2023-04-16T02:25:47.303Z,-75
2023-04-16T02:28:17.286Z,-75
2023-04-16T02:30:44.821Z,-75
2023-04-16T02:33:13.130Z,-75
2023-04-16T02:35:40.878Z,-75
2023-04-16T02:38:08.905Z,-75
2023-04-16T02:40:36.764Z,-77
2023-04-16T02:43:04.063Z,-74
2023-04-16T02:45:31.874Z,-75
2023-04-16T02:47:59.287Z,-75
2023-04-16T02:50:26.594Z,-75
2023-04-16T02:52:53.817Z,-75
2023-04-16T02:55:21.192Z,-75
2023-04-16T02:57:48.449Z,-75
2023-04-16T03:00:15.757Z,-76
2023-04-16T03:02:43.028Z,-75
2023-04-16T03:05:10.883Z,-75
2023-04-16T03:07:38.206Z,-76
2023-04-16T03:10:07.446Z,-75
2023-04-16T03:12:35.471Z,-77
2023-04-16T03:15:03.216Z,-74
2023-04-16T03:17:30.456Z,-74
2023-04-16T03:19:57.753Z,-75
2023-04-16T03:22:25.265Z,-75
2023-04-16T03:24:52.460Z,-76
2023-04-16T03:27:19.686Z,-75
2023-04-16T03:29:47.181Z,-73
2023-04-16T03:32:14.506Z,-75
2023-04-16T03:34:41.742Z,-75
2023-04-16T03:37:08.948Z,-75
2023-04-16T03:39:36.041Z,-73
2023-04-16T03:42:03.749Z,-74
2023-04-16T03:44:31.121Z,-76
2023-04-16T03:46:58.414Z,-75
2023-04-16T03:49:25.666Z,-74
2023-04-16T03:51:53.188Z,-74
2023-04-16T03:54:22.454Z,-73
2023-04-16T03:56:50.341Z,-75
2023-04-16T03:59:18.139Z,-75
2023-04-16T04:01:45.521Z,-75
2023-04-16T04:04:12.767Z,-74
2023-04-16T04:06:40.106Z,-73
2023-04-16T04:09:07.485Z,-75
2023-04-16T04:11:34.818Z,-76
2023-04-16T04:14:02.228Z,-74
2023-04-16T04:16:29.530Z,-75
2023-04-16T04:18:56.775Z,-74
2023-04-16T04:21:24.212Z,-74
2023-04-16T04:23:51.416Z,-76
2023-04-16T04:26:18.963Z,-74
2023-04-16T04:28:46.441Z,-75
2023-04-16T04:31:14.293Z,-76
2023-04-16T04:33:41.540Z,-74
2023-04-16T04:36:08.764Z,-75
2023-04-16T04:38:35.970Z,-75
2023-04-16T04:41:03.262Z,-76
2023-04-16T04:43:30.702Z,-75
2023-04-16T04:46:03.255Z,-76
2023-04-16T04:48:30.541Z,-75
2023-04-16T04:50:57.800Z,-74
2023-04-16T04:53:25.023Z,-75
2023-04-16T04:55:54.174Z,-75
2023-04-16T04:58:24.624Z,-76
2023-04-16T05:00:51.979Z,-75
2023-04-16T05:03:22.703Z,-75
2023-04-16T05:05:50.027Z,-75
2023-04-16T05:08:17.260Z,-74
2023-04-16T05:10:44.520Z,-74
2023-04-16T05:13:11.779Z,-74
2023-04-16T05:15:40.521Z,-74
2023-04-16T05:18:07.754Z,-73
2023-04-16T05:20:35.077Z,-74
2023-04-16T05:23:02.277Z,-74
2023-04-16T05:25:29.681Z,-75
2023-04-16T05:27:57.065Z,-74
2023-04-16T05:30:24.311Z,-74
2023-04-16T05:32:51.732Z,-74
2023-04-16T05:35:19.176Z,-74
2023-04-16T05:37:47.683Z,-74
2023-04-16T05:40:18.218Z,-74
2023-04-16T05:42:51.814Z,-74
2023-04-16T05:45:19.324Z,-75
2023-04-16T05:47:46.485Z,-74
2023-04-16T05:50:13.749Z,-75
2023-04-16T05:52:41.090Z,-74
2023-04-16T05:55:08.763Z,-74
2023-04-16T05:57:36.026Z,-74
2023-04-16T06:00:03.500Z,-74
2023-04-16T06:02:30.970Z,-74
2023-04-16T06:04:58.166Z,-74
2023-04-16T06:07:25.339Z,-74
2023-04-16T06:09:52.903Z,-74
2023-04-16T06:12:20.157Z,-74
2023-04-16T06:14:47.440Z,-73
2023-04-16T06:17:14.872Z,-74
2023-04-16T06:19:42.092Z,-74
2023-04-16T06:22:09.498Z,-74
2023-04-16T06:24:37.155Z,-74
2023-04-16T06:27:04.729Z,-74
2023-04-16T06:29:40.468Z,-73
2023-04-16T06:32:08.719Z,-73
2023-04-16T06:34:37.260Z,-72
2023-04-16T06:37:04.507Z,-74
2023-04-16T06:39:31.802Z,-73
2023-04-16T06:41:59.115Z,-74
2023-04-16T06:44:26.330Z,-74
2023-04-16T06:46:53.773Z,-74
2023-04-16T06:49:21.469Z,-74
2023-04-16T06:51:48.713Z,-74
2023-04-16T06:54:16.317Z,-73
2023-04-16T06:56:43.676Z,-74
2023-04-16T06:59:11.373Z,-74
2023-04-16T07:01:38.820Z,-74
2023-04-16T07:04:06.182Z,-74
2023-04-16T07:06:33.429Z,-74
2023-04-16T07:09:00.657Z,-74
2023-04-16T07:11:27.970Z,-74
2023-04-16T07:13:55.388Z,-73
2023-04-16T07:16:22.659Z,-76
2023-04-16T07:18:49.985Z,-74
2023-04-16T07:21:17.312Z,-74
2023-04-16T07:23:44.616Z,-74
2023-04-16T07:26:11.870Z,-74
2023-04-16T07:28:39.155Z,-73
2023-04-16T07:31:06.592Z,-73
2023-04-16T07:33:33.846Z,-74
2023-04-16T07:36:01.151Z,-73
2023-04-16T07:38:28.367Z,-73
2023-04-16T07:40:56.157Z,-74
2023-04-16T07:43:23.334Z,-74
2023-04-16T07:45:50.660Z,-73
2023-04-16T07:48:17.937Z,-73
2023-04-16T07:50:45.400Z,-73
2023-04-16T07:53:13.030Z,-73
2023-04-16T07:55:40.213Z,-74
2023-04-16T07:58:07.372Z,-73
2023-04-16T08:00:34.616Z,-74
2023-04-16T08:03:02.000Z,-73
2023-04-16T08:05:29.516Z,-74
2023-04-16T08:07:56.825Z,-74
2023-04-16T08:10:24.077Z,-74
2023-04-16T08:12:51.386Z,-74
2023-04-16T08:15:18.789Z,-74
2023-04-16T08:17:46.255Z,-74
2023-04-16T08:20:16.945Z,-72
2023-04-16T08:22:46.787Z,-73
2023-04-16T08:25:14.737Z,-73
2023-04-16T08:27:42.077Z,-73
2023-04-16T08:30:09.408Z,-74
2023-04-16T08:32:36.678Z,-73
2023-04-16T08:35:04.527Z,-74
2023-04-16T08:37:31.960Z,-74
2023-04-16T08:39:59.123Z,-74
2023-04-16T08:42:39.388Z,-74
2023-04-16T08:45:18.302Z,-74
2023-04-16T08:47:51.075Z,-74
2023-04-16T08:50:25.313Z,-74
2023-04-16T08:53:06.602Z,-74
2023-04-16T08:55:40.632Z,-72
2023-04-16T08:58:22.837Z,-74
2023-04-16T09:00:50.321Z,-74
2023-04-16T09:03:18.130Z,-74
2023-04-16T09:05:46.758Z,-74
2023-04-16T09:08:14.367Z,-74
2023-04-16T09:10:42.501Z,-74
2023-04-16T09:13:11.020Z,-75
2023-04-16T09:15:39.871Z,-75
2023-04-16T09:18:07.158Z,-74
2023-04-16T09:20:35.163Z,-74
2023-04-16T09:23:02.398Z,-74
2023-04-16T09:25:36.032Z,-74
2023-04-16T09:28:04.090Z,-73
2023-04-16T09:30:31.260Z,-74
2023-04-16T09:33:20.608Z,-73
2023-04-16T09:35:50.271Z,-74
2023-04-16T09:38:23.793Z,-74
2023-04-16T09:41:07.836Z,-72
2023-04-16T09:43:36.977Z,-74
2023-04-16T09:46:08.210Z,-75
2023-04-16T09:48:35.920Z,-74
2023-04-16T09:51:07.029Z,-74
2023-04-16T09:53:34.501Z,-73
2023-04-16T09:56:05.464Z,-74
2023-04-16T09:58:35.925Z,-76
2023-04-16T10:01:05.426Z,-74
2023-04-16T10:03:34.693Z,-74
2023-04-16T10:06:19.405Z,-74
2023-04-16T10:08:50.657Z,-76
2023-04-16T10:11:19.786Z,-74
2023-04-16T10:13:47.315Z,-74
2023-04-16T10:16:14.750Z,-74
2023-04-16T10:18:45.066Z,-76
2023-04-16T10:21:14.013Z,-74
2023-04-16T10:23:43.961Z,-74
2023-04-16T10:26:11.616Z,-73
2023-04-16T10:28:40.630Z,-74
2023-04-16T10:31:09.771Z,-74
2023-04-16T10:33:43.169Z,-74
2023-04-16T10:36:17.080Z,-72
2023-04-16T10:38:50.332Z,-73
2023-04-16T10:41:22.759Z,-74
2023-04-16T10:43:52.334Z,-76
2023-04-16T10:46:32.118Z,-74
2023-04-16T10:49:13.515Z,-74
2023-04-16T10:51:44.335Z,-73
2023-04-16T10:54:12.279Z,-76
2023-04-16T10:56:48.185Z,-75
2023-04-16T10:59:21.180Z,-73
2023-04-16T11:01:56.114Z,-74
2023-04-16T11:04:33.892Z,-73
2023-04-16T11:07:13.270Z,-75
2023-04-16T11:10:03.319Z,-74
2023-04-16T11:12:38.232Z,-74
2023-04-16T11:15:17.819Z,-74
2023-04-16T11:17:50.484Z,-73
2023-04-16T11:20:25.321Z,-74
2023-04-16T11:22:55.945Z,-73
2023-04-16T11:25:26.009Z,-74
2023-04-16T11:27:54.029Z,-74
2023-04-16T11:30:36.575Z,-75
2023-04-16T11:33:09.974Z,-74
2023-04-16T11:35:39.520Z,-72
2023-04-16T11:38:07.239Z,-75
2023-04-16T11:40:35.417Z,-74
2023-04-16T11:43:13.849Z,-73
2023-04-16T11:46:02.609Z,-74
2023-04-16T11:48:56.169Z,-73
2023-04-16T11:51:24.138Z,-74
2023-04-16T11:53:53.763Z,-74
2023-04-16T11:56:28.617Z,-73
2023-04-16T11:59:15.805Z,-75
2023-04-16T12:01:49.354Z,-74
2023-04-16T12:04:20.650Z,-73
2023-04-16T12:07:12.529Z,-74
2023-04-16T12:09:42.676Z,-79
2023-04-16T12:12:31.902Z,-73
2023-04-16T12:15:00.314Z,-72
2023-04-16T12:17:27.746Z,-73
2023-04-16T12:20:00.942Z,-74
2023-04-16T12:22:37.425Z,-73
2023-04-16T12:25:16.762Z,-73
2023-04-16T12:27:50.683Z,-75
2023-04-16T12:30:23.779Z,-74
2023-04-16T12:33:12.116Z,-74
2023-04-16T12:35:41.148Z,-74
2023-04-16T12:38:09.168Z,-76
2023-04-16T12:40:36.985Z,-73
2023-04-16T12:43:04.253Z,-76
2023-04-16T12:45:31.711Z,-74
2023-04-16T12:47:59.499Z,-86
2023-04-16T12:50:27.187Z,-74
2023-04-16T12:52:57.627Z,-73
2023-04-16T12:55:25.682Z,-73
2023-04-16T12:57:53.335Z,-74
2023-04-16T13:00:21.272Z,-74
2023-04-16T13:02:48.958Z,-75
2023-04-16T13:05:16.807Z,-74
2023-04-16T13:07:44.565Z,-74
2023-04-16T13:10:12.680Z,-75
2023-04-16T13:12:40.376Z,-73
2023-04-16T13:15:08.542Z,-73
2023-04-16T13:17:36.176Z,-73
2023-04-16T13:20:04.450Z,-75
2023-04-16T13:22:32.190Z,-74
2023-04-16T13:24:59.744Z,-74
2023-04-16T13:27:27.840Z,-74
2023-04-16T13:29:55.453Z,-73
2023-04-16T13:32:23.083Z,-75
2023-04-16T13:34:50.795Z,-76
2023-04-16T13:37:18.501Z,-75
2023-04-16T13:39:46.122Z,-74
2023-04-16T13:42:13.696Z,-74
2023-04-16T13:44:41.762Z,-73
2023-04-16T13:47:09.690Z,-73
2023-04-16T13:49:37.267Z,-75
2023-04-16T13:52:04.871Z,-74
2023-04-16T13:54:32.444Z,-74
2023-04-16T13:57:00.412Z,-74
2023-04-16T13:59:28.071Z,-74
2023-04-16T14:01:55.754Z,-74
2023-04-16T14:04:23.527Z,-74
2023-04-16T14:06:51.452Z,-72
2023-04-16T14:09:18.990Z,-78
2023-04-16T14:11:46.617Z,-76
2023-04-16T14:14:14.416Z,-74
2023-04-16T14:16:42.119Z,-76
2023-04-16T14:19:10.157Z,-75
2023-04-16T14:21:37.879Z,-75
2023-04-16T14:24:05.685Z,-75
2023-04-16T14:26:33.216Z,-76
2023-04-16T14:29:01.018Z,-74
2023-04-16T14:31:28.495Z,-74
2023-04-16T14:33:55.695Z,-74
2023-04-16T14:36:23.025Z,-77
2023-04-16T14:38:50.400Z,-76
2023-04-16T14:41:17.715Z,-75
2023-04-16T14:43:45.225Z,-73
2023-04-16T14:46:12.667Z,-75
2023-04-16T14:48:40.274Z,-75
2023-04-16T14:51:07.520Z,-76
2023-04-16T14:53:34.919Z,-77
2023-04-16T14:56:02.324Z,-76
2023-04-16T14:58:29.805Z,-76
2023-04-16T15:00:59.097Z,-76
2023-04-16T15:03:26.738Z,-77
2023-04-16T15:05:54.523Z,-75
2023-04-16T15:08:22.910Z,-76
2023-04-16T15:10:51.228Z,-75
2023-04-16T15:13:19.002Z,-76
2023-04-16T15:15:46.356Z,-75
2023-04-16T15:18:13.742Z,-75
2023-04-16T15:20:41.075Z,-76
2023-04-16T15:23:08.676Z,-75
2023-04-16T15:25:36.046Z,-79
2023-04-16T15:28:03.421Z,-78
2023-04-16T15:30:31.628Z,-76
2023-04-16T15:32:59.614Z,-75
2023-04-16T15:35:26.905Z,-76
2023-04-16T15:37:57.276Z,-77
2023-04-16T15:40:25.555Z,-77
2023-04-16T15:42:52.737Z,-77
2023-04-16T15:45:20.097Z,-76
2023-04-16T15:47:47.563Z,-77
2023-04-16T15:50:15.195Z,-77
2023-04-16T15:52:42.531Z,-76
2023-04-16T15:55:10.325Z,-76
2023-04-16T15:57:37.545Z,-75
2023-04-16T16:00:07.373Z,-78
2023-04-16T16:02:35.236Z,-76
2023-04-16T16:05:03.127Z,-76
2023-04-16T16:07:31.440Z,-77
2023-04-16T16:09:58.848Z,-76
2023-04-16T16:12:26.060Z,-75
2023-04-16T16:14:53.353Z,-77
2023-04-16T16:17:20.616Z,-76
2023-04-16T16:19:48.125Z,-77
2023-04-16T16:22:15.540Z,-77
2023-04-16T16:24:42.935Z,-76
2023-04-16T16:27:10.225Z,-77
2023-04-16T16:29:37.519Z,-78
2023-04-16T16:32:05.253Z,-78
2023-04-16T16:34:32.759Z,-78
2023-04-16T16:36:59.965Z,-78
2023-04-16T16:39:27.654Z,-76
2023-04-16T16:41:55.064Z,-77
2023-04-16T16:44:23.085Z,-77
2023-04-16T16:46:51.045Z,-77
2023-04-16T16:49:18.754Z,-77
2023-04-16T16:51:47.039Z,-78
2023-04-16T16:54:14.888Z,-77
2023-04-16T16:56:42.567Z,-77
2023-04-16T16:59:10.852Z,-76
2023-04-16T17:01:38.452Z,-77
2023-04-16T17:04:06.082Z,-78
2023-04-16T17:06:33.760Z,-78
2023-04-16T17:09:02.248Z,-76
2023-04-16T17:11:29.755Z,-76
2023-04-16T17:13:57.216Z,-74
2023-04-16T17:16:25.019Z,-79
2023-04-16T17:18:52.288Z,-78
2023-04-16T17:21:19.402Z,-78
2023-04-16T17:23:46.643Z,-77
2023-04-16T17:26:14.386Z,-78
2023-04-16T17:28:41.675Z,-75
2023-04-16T17:31:08.912Z,-78
2023-04-16T17:33:36.755Z,-77
2023-04-16T17:36:04.900Z,-77
2023-04-16T17:38:32.885Z,-79
2023-04-16T17:41:00.382Z,-77
2023-04-16T17:43:28.549Z,-77
2023-04-16T17:45:56.390Z,-77
2023-04-16T17:48:23.625Z,-79
2023-04-16T17:50:51.008Z,-76
2023-04-16T17:53:18.302Z,-77
2023-04-16T17:55:54.547Z,-77
2023-04-16T17:58:23.882Z,-78
2023-04-16T18:00:51.339Z,-77
2023-04-16T18:03:20.697Z,-78
2023-04-16T18:05:49.438Z,-78
2023-04-16T18:08:17.442Z,-77
2023-04-16T18:10:45.505Z,-78
2023-04-16T18:13:12.973Z,-79
2023-04-16T18:15:40.613Z,-78
2023-04-16T18:18:08.553Z,-76
2023-04-16T18:20:35.922Z,-77
2023-04-16T18:23:03.701Z,-76
2023-04-16T18:25:34.960Z,-76
2023-04-16T18:28:03.268Z,-78
2023-04-16T18:30:31.010Z,-78
2023-04-16T18:35:28.931Z,-77
2023-04-16T18:37:56.388Z,-79
2023-04-16T18:40:23.993Z,-76
2023-04-16T18:42:52.992Z,-77
2023-04-16T18:45:21.918Z,-76
2023-04-16T18:47:49.801Z,-79
2023-04-16T18:50:18.720Z,-78
2023-04-16T18:52:46.335Z,-78
2023-04-16T18:55:16.699Z,-77
2023-04-16T18:57:44.550Z,-77
2023-04-16T19:00:13.086Z,-76
2023-04-16T19:02:40.806Z,-78
2023-04-16T19:05:09.828Z,-79
2023-04-16T19:07:37.687Z,-79
2023-04-16T19:10:06.171Z,-76
2023-04-16T19:12:33.452Z,-79
2023-04-16T19:15:01.166Z,-78
2023-04-16T19:17:28.611Z,-77
2023-04-16T19:19:56.089Z,-78
2023-04-16T19:22:23.656Z,-77
2023-04-16T19:24:51.011Z,-78
2023-04-16T19:27:18.480Z,-77
2023-04-16T19:29:45.673Z,-78
2023-04-16T19:32:14.135Z,-78
2023-04-16T19:34:41.606Z,-78
2023-04-16T19:37:08.881Z,-77
2023-04-16T19:39:36.480Z,-78
2023-04-16T19:42:04.471Z,-78
2023-04-16T19:44:31.646Z,-78
2023-04-16T19:46:59.590Z,-76
2023-04-16T19:49:27.248Z,-78
2023-04-16T19:51:54.504Z,-78
2023-04-16T19:54:21.715Z,-77
2023-04-16T19:56:50.288Z,-79
2023-04-16T19:59:18.298Z,-77
2023-04-16T20:01:46.510Z,-79
2023-04-16T20:04:13.750Z,-77
2023-04-16T20:06:41.493Z,-76
2023-04-16T20:09:08.897Z,-78
2023-04-16T20:11:36.208Z,-77
2023-04-16T20:14:03.893Z,-78
2023-04-16T20:16:31.379Z,-78
2023-04-16T20:18:59.793Z,-78
2023-04-16T20:21:28.024Z,-77
2023-04-16T20:23:55.251Z,-77
2023-04-16T20:26:22.994Z,-76
2023-04-16T20:28:50.368Z,-77
2023-04-16T20:31:17.897Z,-78
2023-04-16T20:33:45.595Z,-77
2023-04-16T20:36:12.881Z,-78
2023-04-16T20:38:40.124Z,-78
2023-04-16T20:41:07.400Z,-78
2023-04-16T20:43:34.596Z,-76
2023-04-16T20:46:01.866Z,-78
2023-04-16T20:48:29.126Z,-78
2023-04-16T20:51:04.539Z,-78
2023-04-16T20:53:32.884Z,-77
2023-04-16T20:56:00.413Z,-78
2023-04-16T20:58:27.811Z,-77
2023-04-16T21:00:57.494Z,-77
2023-04-16T21:03:26.258Z,-79
2023-04-16T21:05:55.672Z,-77
2023-04-16T21:08:24.420Z,-77
2023-04-16T21:10:51.859Z,-76
2023-04-16T21:13:19.648Z,-78
2023-04-16T21:15:47.062Z,-78
2023-04-16T21:18:14.664Z,-78
2023-04-16T21:20:41.856Z,-78
2023-04-16T21:23:09.473Z,-77
2023-04-16T21:25:36.760Z,-78
2023-04-16T21:28:04.110Z,-78
2023-04-16T21:30:31.253Z,-78
2023-04-16T21:32:58.691Z,-78
2023-04-16T21:35:26.133Z,-76
2023-04-16T21:37:53.509Z,-79
2023-04-16T21:40:20.835Z,-79
2023-04-16T21:42:48.411Z,-78
2023-04-16T21:45:15.642Z,-77
2023-04-16T21:47:43.011Z,-78
2023-04-16T21:50:11.015Z,-77
2023-04-16T21:52:38.338Z,-74
2023-04-16T21:55:08.038Z,-78
2023-04-16T21:57:35.288Z,-79
2023-04-16T22:00:02.848Z,-78
2023-04-16T22:02:30.190Z,-78
2023-04-16T22:04:57.403Z,-77
2023-04-16T22:07:24.532Z,-78
2023-04-16T22:09:51.664Z,-79
2023-04-16T22:12:18.938Z,-78
2023-04-16T22:14:59.558Z,-78
2023-04-16T22:17:29.433Z,-79
2023-04-16T22:19:56.718Z,-77
2023-04-16T22:22:23.974Z,-78
2023-04-16T22:24:51.264Z,-78
2023-04-16T22:27:18.921Z,-77
2023-04-16T22:29:46.241Z,-78
2023-04-16T22:32:13.475Z,-78
2023-04-16T22:34:40.778Z,-77
2023-04-16T22:37:08.133Z,-76
2023-04-16T22:39:35.434Z,-76
2023-04-16T22:42:02.687Z,-77
2023-04-16T22:44:29.865Z,-76
2023-04-16T22:46:57.238Z,-77
2023-04-16T22:49:24.482Z,-77
2023-04-16T22:51:51.686Z,-75
2023-04-16T22:54:18.878Z,-77
2023-04-16T22:56:46.509Z,-77
2023-04-16T22:59:13.880Z,-76
2023-04-16T23:01:41.199Z,-77
2023-04-16T23:04:08.556Z,-75
2023-04-16T23:06:35.821Z,-78
2023-04-16T23:09:03.096Z,-78
2023-04-16T23:11:30.281Z,-77
2023-04-16T23:13:57.637Z,-76
2023-04-16T23:16:24.915Z,-76
2023-04-16T23:18:52.137Z,-77
2023-04-16T23:21:19.231Z,-78
2023-04-16T23:23:46.507Z,-77
2023-04-16T23:26:13.908Z,-78
2023-04-16T23:28:41.523Z,-78
2023-04-16T23:31:08.962Z,-77
2023-04-16T23:33:36.144Z,-78
2023-04-16T23:36:03.665Z,-76
2023-04-16T23:38:30.939Z,-77
2023-04-16T23:40:58.130Z,-77
2023-04-16T23:43:25.416Z,-77
2023-04-16T23:45:52.709Z,-78
2023-04-16T23:48:20.070Z,-77
2023-04-16T23:50:47.546Z,-77
2023-04-16T23:53:14.776Z,-77
2023-04-16T23:55:42.040Z,-76
2023-04-16T23:58:09.273Z,-75
